Time;durP1;ratioP1;P1;durP2;ratioP2;P2;SDS_P1;SDS_P2;PMS_P1;PMS_P2;Temp;Humidity;BMP_temperature;BMP_pressure;BME280_temperature;BME280_humidity;BME280_pressure;Samples;Min_cycle;Max_cycle;Signal;HPM_P1;HPM_P2
2023/05/15 00:01:12;;;;;;;;;;;14.10;99.90;;;;;;4949839;28;20306;-63
2023/05/15 00:03:38;;;;;;;;;;;14.10;99.90;;;;;;4950644;28;19927;-63
2023/05/15 00:06:04;;;;;;;;;;;14.10;99.90;;;;;;4954076;28;19922;-63
2023/05/15 00:08:29;;;;;;;;;;;14.10;99.90;;;;;;4950538;28;20302;-63
2023/05/15 00:10:55;;;;;;;;;;;14.10;99.90;;;;;;4951815;28;19910;-64
2023/05/15 00:13:20;;;;;;;;;;;14.10;99.90;;;;;;4950005;28;20405;-64
2023/05/15 00:15:46;;;;;;;;;;;14.10;99.90;;;;;;4949744;28;19914;-64
2023/05/15 00:18:11;;;;;;;;;;;14.10;99.90;;;;;;4950059;28;19921;-64
2023/05/15 00:20:37;;;;;;;;;;;14.10;99.90;;;;;;4953049;28;19996;-64
2023/05/15 00:23:03;;;;;;;;;;;14.10;99.90;;;;;;4950560;28;19920;-64
2023/05/15 00:25:28;;;;;;;;;;;14.10;99.90;;;;;;4949235;28;19976;-64
2023/05/15 00:27:54;;;;;;;;;;;14.10;99.90;;;;;;4949023;28;19914;-65
2023/05/15 00:30:19;;;;;;;;;;;14.10;99.90;;;;;;4951232;28;19918;-64
2023/05/15 00:32:45;;;;;;;;;;;14.10;99.90;;;;;;4954007;28;19911;-64
2023/05/15 00:35:10;;;;;;;;;;;14.10;99.90;;;;;;4950886;28;20034;-67
2023/05/15 00:37:36;;;;;;;;;;;14.00;99.90;;;;;;4951855;28;20769;-68
2023/05/15 00:40:01;;;;;;;;;;;14.00;99.90;;;;;;4953038;28;19914;-67
2023/05/15 00:42:27;;;;;;;;;;;14.00;99.90;;;;;;4952786;28;19964;-67
2023/05/15 00:44:54;;;;;;;;;;;14.00;99.90;;;;;;4949546;28;19947;-67
2023/05/15 00:47:20;;;;;;;;;;;14.00;99.90;;;;;;4948446;28;20395;-67
2023/05/15 00:49:46;;;;;;;;;;;14.00;99.90;;;;;;4950501;28;19997;-68
2023/05/15 00:52:12;;;;;;;;;;;14.00;99.90;;;;;;4947200;28;19914;-67
2023/05/15 00:54:37;;;;;;;;;;;14.10;99.90;;;;;;4947372;28;19911;-67
2023/05/15 00:57:04;;;;;;;;;;;14.00;99.90;;;;;;4942466;28;20168;-69
2023/05/15 00:59:30;;;;;;;;;;;14.10;99.90;;;;;;4943595;28;19911;-68
2023/05/15 01:01:56;;;;;;;;;;;14.00;99.90;;;;;;4947446;28;19921;-68
2023/05/15 01:04:21;;;;;;;;;;;14.00;99.90;;;;;;4941420;28;19929;-68
2023/05/15 01:06:52;;;;;;;;;;;14.00;99.90;;;;;;4944261;28;19918;-68
2023/05/15 01:09:18;;;;;;;;;;;14.00;99.90;;;;;;4945288;28;20321;-67
2023/05/15 01:11:45;;;;;;;;;;;14.00;99.90;;;;;;4950920;28;19952;-66
2023/05/15 01:14:11;;;;;;;;;;;14.00;99.90;;;;;;4943611;28;19940;-66
2023/05/15 01:16:37;;;;;;;;;;;14.00;99.90;;;;;;4948022;28;20446;-67
2023/05/15 01:19:03;;;;;;;;;;;14.00;99.90;;;;;;4940444;28;19929;-65
2023/05/15 01:21:29;;;;;;;;;;;14.00;99.90;;;;;;4945505;28;19914;-66
2023/05/15 01:24:06;;;;;;;;;;;14.10;99.90;;;;;;4943322;28;19921;-66
2023/05/15 01:26:37;;;;;;;;;;;14.10;99.90;;;;;;4953489;28;20215;-66
2023/05/15 01:29:07;;;;;;;;;;;14.10;99.90;;;;;;4943520;28;20459;-65
2023/05/15 01:31:33;;;;;;;;;;;14.10;99.90;;;;;;4947155;28;20095;-66
2023/05/15 01:34:01;;;;;;;;;;;14.10;99.90;;;;;;4945669;28;19926;-66
2023/05/15 01:36:46;;;;;;;;;;;14.00;99.90;;;;;;4951640;28;19922;-67
2023/05/15 01:39:12;;;;;;;;;;;14.10;99.90;;;;;;4946558;28;19918;-66
2023/05/15 01:41:44;;;;;;;;;;;14.10;99.90;;;;;;4939264;28;19914;-65
2023/05/15 01:44:09;;;;;;;;;;;14.10;99.90;;;;;;4946466;28;19984;-65
2023/05/15 01:46:37;;;;;;;;;;;14.10;99.90;;;;;;4946856;28;20314;-65
2023/05/15 01:49:03;;;;;;;;;;;14.10;99.90;;;;;;4943876;28;20323;-65
2023/05/15 01:51:30;;;;;;;;;;;14.10;99.90;;;;;;4940958;28;20033;-65
2023/05/15 01:53:57;;;;;;;;;;;14.10;99.90;;;;;;4949365;28;20391;-65
2023/05/15 01:56:23;;;;;;;;;;;14.10;99.90;;;;;;4947737;28;19918;-65
2023/05/15 01:58:49;;;;;;;;;;;14.10;99.90;;;;;;4932724;28;19914;-65
2023/05/15 02:01:15;;;;;;;;;;;14.10;99.90;;;;;;4945812;28;19945;-65
2023/05/15 02:03:41;;;;;;;;;;;14.10;99.90;;;;;;4947120;28;20654;-65
2023/05/15 02:06:06;;;;;;;;;;;14.00;99.90;;;;;;4952310;28;19914;-65
2023/05/15 02:08:33;;;;;;;;;;;14.00;99.90;;;;;;4954773;28;19957;-68
2023/05/15 02:11:00;;;;;;;;;;;14.10;99.90;;;;;;4951173;28;20400;-68
2023/05/15 02:13:26;;;;;;;;;;;14.00;99.90;;;;;;4953219;28;20398;-68
2023/05/15 02:15:51;;;;;;;;;;;14.00;99.90;;;;;;4944429;28;20008;-68
2023/05/15 02:18:17;;;;;;;;;;;14.00;99.90;;;;;;4945213;28;19915;-68
2023/05/15 02:20:43;;;;;;;;;;;14.00;99.90;;;;;;4944785;28;20375;-69
2023/05/15 02:23:08;;;;;;;;;;;14.00;99.90;;;;;;4949058;28;20056;-69
2023/05/15 02:25:53;;;;;;;;;;;13.90;99.90;;;;;;4948596;28;19922;-69
2023/05/15 02:28:27;;;;;;;;;;;13.90;99.90;;;;;;4948507;28;19918;-65
2023/05/15 02:31:13;;;;;;;;;;;14.00;99.90;;;;;;4946656;28;19914;-65
2023/05/15 02:33:48;;;;;;;;;;;14.00;99.90;;;;;;4948214;28;20284;-65
2023/05/15 02:36:18;;;;;;;;;;;14.00;99.90;;;;;;4950225;28;20452;-65
2023/05/15 02:38:46;;;;;;;;;;;14.00;99.90;;;;;;4948822;28;19918;-65
2023/05/15 02:41:12;;;;;;;;;;;14.00;99.90;;;;;;4950504;28;20445;-65
2023/05/15 02:43:38;;;;;;;;;;;14.00;99.90;;;;;;4945823;28;20259;-65
2023/05/15 02:46:06;;;;;;;;;;;14.00;99.90;;;;;;4950220;28;19915;-65
2023/05/15 02:48:32;;;;;;;;;;;14.00;99.90;;;;;;4948241;28;19928;-68
2023/05/15 02:50:58;;;;;;;;;;;14.00;99.90;;;;;;4954443;28;19978;-68
2023/05/15 02:53:23;;;;;;;;;;;14.00;99.90;;;;;;4949624;28;20036;-68
2023/05/15 02:55:49;;;;;;;;;;;14.00;99.90;;;;;;4953226;28;19921;-68
2023/05/15 02:58:15;;;;;;;;;;;14.00;99.90;;;;;;4944240;28;19957;-68
2023/05/15 03:00:40;;;;;;;;;;;14.00;99.90;;;;;;4946497;28;19914;-68
2023/05/15 03:03:05;;;;;;;;;;;14.00;99.90;;;;;;4946320;28;19910;-68
2023/05/15 03:05:31;;;;;;;;;;;14.00;99.90;;;;;;4936974;28;19965;-65
2023/05/15 03:07:57;;;;;;;;;;;14.10;99.90;;;;;;4942551;28;19937;-65
2023/05/15 03:10:23;;;;;;;;;;;14.10;99.90;;;;;;4949070;28;19914;-65
2023/05/15 03:12:48;;;;;;;;;;;14.10;99.90;;;;;;4950988;28;20381;-65
2023/05/15 03:15:14;;;;;;;;;;;14.10;99.90;;;;;;4953215;28;19925;-65
2023/05/15 03:17:40;;;;;;;;;;;14.10;99.90;;;;;;4948261;28;20386;-65
2023/05/15 03:20:06;;;;;;;;;;;14.10;99.90;;;;;;4954298;28;19993;-66
2023/05/15 03:22:31;;;;;;;;;;;14.10;99.90;;;;;;4957362;28;19911;-65
2023/05/15 03:24:57;;;;;;;;;;;14.10;99.90;;;;;;4948502;28;19997;-65
2023/05/15 03:27:22;;;;;;;;;;;14.10;99.90;;;;;;4955279;28;20339;-65
2023/05/15 03:29:49;;;;;;;;;;;14.10;99.90;;;;;;4947517;28;19942;-65
2023/05/15 03:32:15;;;;;;;;;;;14.10;99.90;;;;;;4952133;28;19938;-65
2023/05/15 03:34:41;;;;;;;;;;;14.10;99.90;;;;;;4958950;28;19925;-65
2023/05/15 03:37:06;;;;;;;;;;;14.10;99.90;;;;;;4955092;28;19910;-65
2023/05/15 03:39:32;;;;;;;;;;;14.10;99.90;;;;;;4953266;28;19976;-65
2023/05/15 03:41:57;;;;;;;;;;;14.10;99.90;;;;;;4952041;28;20554;-65
2023/05/15 03:44:23;;;;;;;;;;;14.10;99.90;;;;;;4952363;28;19926;-69
2023/05/15 03:46:48;;;;;;;;;;;14.10;99.90;;;;;;4951760;28;19922;-68
2023/05/15 03:49:14;;;;;;;;;;;14.10;99.90;;;;;;4953525;28;20013;-69
2023/05/15 03:51:39;;;;;;;;;;;14.10;99.90;;;;;;4956159;28;20219;-69
2023/05/15 03:54:05;;;;;;;;;;;14.20;99.90;;;;;;4950837;28;19921;-68
2023/05/15 03:56:31;;;;;;;;;;;14.10;99.90;;;;;;4954354;28;19925;-68
2023/05/15 03:58:57;;;;;;;;;;;14.20;99.90;;;;;;4949716;28;20422;-68
2023/05/15 04:01:22;;;;;;;;;;;14.20;99.90;;;;;;4949013;28;19925;-68
2023/05/15 04:03:48;;;;;;;;;;;14.10;99.90;;;;;;4953283;28;19960;-68
2023/05/15 04:06:14;;;;;;;;;;;14.10;99.90;;;;;;4953128;28;20121;-68
2023/05/15 04:08:39;;;;;;;;;;;14.10;99.90;;;;;;4953277;28;20295;-68
2023/05/15 04:11:05;;;;;;;;;;;14.10;99.90;;;;;;4952393;28;19914;-68
2023/05/15 04:13:31;;;;;;;;;;;14.10;99.90;;;;;;4953283;28;20307;-68
2023/05/15 04:15:58;;;;;;;;;;;14.20;99.90;;;;;;4950081;28;20012;-68
2023/05/15 04:18:24;;;;;;;;;;;14.20;99.90;;;;;;4952482;28;19922;-68
2023/05/15 04:20:50;;;;;;;;;;;14.20;99.90;;;;;;4951393;28;19925;-69
2023/05/15 04:23:15;;;;;;;;;;;14.20;99.90;;;;;;4949970;28;19910;-64
2023/05/15 04:25:45;;;;;;;;;;;14.20;99.90;;;;;;4952594;28;20525;-64
2023/05/15 04:28:11;;;;;;;;;;;14.20;99.90;;;;;;4951071;28;20151;-65
2023/05/15 04:30:37;;;;;;;;;;;14.20;99.90;;;;;;4945224;28;19914;-64
2023/05/15 04:33:02;;;;;;;;;;;14.20;99.90;;;;;;4950866;28;19948;-64
2023/05/15 04:35:29;;;;;;;;;;;14.20;99.90;;;;;;4950601;28;20302;-64
2023/05/15 04:37:54;;;;;;;;;;;14.20;99.90;;;;;;4951030;28;20315;-64
2023/05/15 04:40:20;;;;;;;;;;;14.30;99.90;;;;;;4950152;28;19914;-65
2023/05/15 04:42:46;;;;;;;;;;;14.30;99.90;;;;;;4948407;28;20811;-70
2023/05/15 04:45:12;;;;;;;;;;;14.30;99.90;;;;;;4954041;28;20323;-68
2023/05/15 04:47:37;;;;;;;;;;;14.30;99.90;;;;;;4954775;28;19917;-67
2023/05/15 04:50:03;;;;;;;;;;;14.30;99.90;;;;;;4948946;28;20182;-68
2023/05/15 04:52:29;;;;;;;;;;;14.30;99.90;;;;;;4956372;28;19921;-67
2023/05/15 04:54:54;;;;;;;;;;;14.40;99.90;;;;;;4948252;28;19921;-69
2023/05/15 04:57:20;;;;;;;;;;;14.40;99.90;;;;;;4954380;28;19918;-68
2023/05/15 04:59:46;;;;;;;;;;;14.40;99.90;;;;;;4956034;28;20286;-65
2023/05/15 05:02:12;;;;;;;;;;;14.40;99.90;;;;;;4948692;28;20544;-66
2023/05/15 05:04:37;;;;;;;;;;;14.40;99.90;;;;;;4950992;28;20028;-65
2023/05/15 05:07:04;;;;;;;;;;;14.40;99.90;;;;;;4950887;28;19914;-65
2023/05/15 05:09:30;;;;;;;;;;;14.50;99.90;;;;;;4950969;28;19920;-65
2023/05/15 05:11:57;;;;;;;;;;;14.40;99.90;;;;;;4949068;28;20274;-66
2023/05/15 05:14:23;;;;;;;;;;;14.50;99.90;;;;;;4952606;28;20027;-65
2023/05/15 05:16:48;;;;;;;;;;;14.50;99.90;;;;;;4953725;28;19944;-66
2023/05/15 05:19:14;;;;;;;;;;;14.40;99.90;;;;;;4953601;28;20414;-65
2023/05/15 05:21:39;;;;;;;;;;;14.40;99.90;;;;;;4952433;28;19961;-65
2023/05/15 05:24:05;;;;;;;;;;;14.40;99.90;;;;;;4958258;28;19921;-65
2023/05/15 05:26:30;;;;;;;;;;;14.40;99.90;;;;;;4948158;28;20517;-65
2023/05/15 05:28:56;;;;;;;;;;;14.40;99.90;;;;;;4951463;28;20342;-65
2023/05/15 05:31:21;;;;;;;;;;;14.40;99.90;;;;;;4946981;28;19918;-65
2023/05/15 05:33:48;;;;;;;;;;;14.40;99.90;;;;;;4953215;28;19916;-65
2023/05/15 05:36:14;;;;;;;;;;;14.40;99.90;;;;;;4953424;28;20013;-64
2023/05/15 05:38:40;;;;;;;;;;;14.30;99.90;;;;;;4950288;28;19914;-65
2023/05/15 05:41:05;;;;;;;;;;;14.30;99.90;;;;;;4946611;28;19918;-65
2023/05/15 05:43:31;;;;;;;;;;;14.30;99.90;;;;;;4951527;28;20293;-65
2023/05/15 05:45:57;;;;;;;;;;;14.30;99.90;;;;;;4950958;28;20062;-65
2023/05/15 05:48:22;;;;;;;;;;;14.30;99.90;;;;;;4949680;28;20000;-65
2023/05/15 05:50:48;;;;;;;;;;;14.40;99.90;;;;;;4951716;28;19914;-65
2023/05/15 05:53:13;;;;;;;;;;;14.40;99.90;;;;;;4956626;28;20079;-65
2023/05/15 05:55:39;;;;;;;;;;;14.50;99.90;;;;;;4954291;28;19918;-68
2023/05/15 05:58:04;;;;;;;;;;;14.50;99.90;;;;;;4953507;28;19918;-69
2023/05/15 06:00:30;;;;;;;;;;;14.50;99.90;;;;;;4949130;28;20375;-69
2023/05/15 06:02:57;;;;;;;;;;;14.60;99.90;;;;;;4955691;28;19933;-70
2023/05/15 06:05:23;;;;;;;;;;;14.60;99.90;;;;;;4951949;28;19922;-69
2023/05/15 06:07:48;;;;;;;;;;;14.70;99.90;;;;;;4958093;28;20634;-69
2023/05/15 06:10:14;;;;;;;;;;;14.70;99.90;;;;;;4953271;28;19953;-68
2023/05/15 06:12:40;;;;;;;;;;;14.80;99.90;;;;;;4949322;28;20390;-69
2023/05/15 06:15:06;;;;;;;;;;;14.90;99.90;;;;;;4948129;28;20531;-69
2023/05/15 06:17:32;;;;;;;;;;;15.00;99.90;;;;;;4950110;28;20430;-65
2023/05/15 06:19:57;;;;;;;;;;;15.10;99.90;;;;;;4952588;28;19921;-66
2023/05/15 06:22:23;;;;;;;;;;;15.10;99.90;;;;;;4944733;28;20599;-65
2023/05/15 06:24:48;;;;;;;;;;;15.20;99.90;;;;;;4952179;28;20386;-65
2023/05/15 06:27:14;;;;;;;;;;;15.40;99.90;;;;;;4950711;28;19953;-66
2023/05/15 06:29:39;;;;;;;;;;;15.50;99.90;;;;;;4946977;28;19925;-65
2023/05/15 06:32:05;;;;;;;;;;;15.50;99.90;;;;;;4945872;28;19918;-66
2023/05/15 06:34:30;;;;;;;;;;;15.60;99.90;;;;;;4954875;28;20326;-69
2023/05/15 06:36:56;;;;;;;;;;;15.50;99.90;;;;;;4954697;28;20142;-69
2023/05/15 06:39:22;;;;;;;;;;;15.50;99.90;;;;;;4951984;28;19992;-69
2023/05/15 06:41:47;;;;;;;;;;;15.60;99.90;;;;;;4949501;28;19914;-69
2023/05/15 06:44:13;;;;;;;;;;;15.60;99.90;;;;;;4952638;28;19914;-69
2023/05/15 06:46:38;;;;;;;;;;;15.60;99.90;;;;;;4948211;28;19944;-69
2023/05/15 06:49:04;;;;;;;;;;;15.50;99.90;;;;;;4941502;28;20377;-69
2023/05/15 06:51:30;;;;;;;;;;;15.50;99.90;;;;;;4951844;28;19917;-69
2023/05/15 06:53:56;;;;;;;;;;;15.50;99.90;;;;;;4946713;28;20414;-69
2023/05/15 06:56:22;;;;;;;;;;;15.40;99.90;;;;;;4948936;28;19925;-68
2023/05/15 06:58:48;;;;;;;;;;;15.40;99.90;;;;;;4949435;28;19918;-68
2023/05/15 07:01:13;;;;;;;;;;;15.30;99.90;;;;;;4948866;28;19961;-68
2023/05/15 07:03:39;;;;;;;;;;;15.30;99.90;;;;;;4949629;28;19914;-69
2023/05/15 07:06:04;;;;;;;;;;;15.40;99.90;;;;;;4951487;28;20121;-68
2023/05/15 07:08:30;;;;;;;;;;;15.50;99.90;;;;;;4944751;28;19917;-69
2023/05/15 07:10:55;;;;;;;;;;;15.50;99.90;;;;;;4947944;28;20414;-69
2023/05/15 07:13:21;;;;;;;;;;;15.40;99.90;;;;;;4951310;28;20299;-70
2023/05/15 07:15:47;;;;;;;;;;;15.50;99.90;;;;;;4952973;28;20225;-68
2023/05/15 07:18:12;;;;;;;;;;;15.50;99.90;;;;;;4945173;28;20390;-68
2023/05/15 07:20:38;;;;;;;;;;;15.60;99.90;;;;;;4948509;28;19957;-68
2023/05/15 07:23:03;;;;;;;;;;;15.70;99.90;;;;;;4954290;28;20362;-68
2023/05/15 07:25:29;;;;;;;;;;;15.70;99.90;;;;;;4953067;28;19918;-68
2023/05/15 07:27:55;;;;;;;;;;;15.70;99.90;;;;;;4946913;28;19917;-69
2023/05/15 07:30:21;;;;;;;;;;;15.70;99.90;;;;;;4941248;28;20265;-69
2023/05/15 07:32:47;;;;;;;;;;;15.70;99.90;;;;;;4949799;28;20271;-65
2023/05/15 07:35:12;;;;;;;;;;;15.70;99.90;;;;;;4945758;28;20007;-64
2023/05/15 07:37:38;;;;;;;;;;;15.80;99.90;;;;;;4949656;28;20044;-64
2023/05/15 07:40:04;;;;;;;;;;;15.80;99.90;;;;;;4951473;28;19924;-64
2023/05/15 07:42:29;;;;;;;;;;;15.80;99.90;;;;;;4947887;28;20678;-64
2023/05/15 07:44:55;;;;;;;;;;;15.80;99.90;;;;;;4950811;28;20004;-64
2023/05/15 07:47:21;;;;;;;;;;;15.80;99.90;;;;;;4949652;28;19914;-64
2023/05/15 07:49:46;;;;;;;;;;;15.90;99.90;;;;;;4950392;28;19920;-64
2023/05/15 07:52:12;;;;;;;;;;;15.80;99.90;;;;;;4956209;28;19918;-64
2023/05/15 07:54:40;;;;;;;;;;;15.80;99.90;;;;;;4952431;28;19937;-64
2023/05/15 07:57:06;;;;;;;;;;;15.80;99.90;;;;;;4950855;28;20223;-64
2023/05/15 07:59:31;;;;;;;;;;;15.80;99.90;;;;;;4937175;28;20242;-64
2023/05/15 08:01:57;;;;;;;;;;;15.70;99.90;;;;;;4929113;28;19914;-65
2023/05/15 08:04:22;;;;;;;;;;;15.70;99.90;;;;;;4947782;28;20035;-65
2023/05/15 08:06:48;;;;;;;;;;;15.80;99.90;;;;;;4949439;28;20046;-65
2023/05/15 08:09:13;;;;;;;;;;;15.80;99.90;;;;;;4947557;28;20394;-64
2023/05/15 08:11:39;;;;;;;;;;;15.80;99.90;;;;;;4947999;28;19918;-71
2023/05/15 08:14:04;;;;;;;;;;;15.80;99.90;;;;;;4946707;28;20376;-71
2023/05/15 08:16:30;;;;;;;;;;;15.80;99.90;;;;;;4943734;28;20298;-69
2023/05/15 08:19:00;;;;;;;;;;;15.80;99.90;;;;;;4943360;28;19918;-69
2023/05/15 08:21:26;;;;;;;;;;;15.80;99.90;;;;;;4953114;28;20007;-69
2023/05/15 08:23:52;;;;;;;;;;;15.80;99.90;;;;;;4947707;28;20253;-69
2023/05/15 08:26:17;;;;;;;;;;;15.80;99.90;;;;;;4946550;28;20494;-68
2023/05/15 08:28:43;;;;;;;;;;;15.80;99.90;;;;;;4948773;28;19925;-69
2023/05/15 08:31:08;;;;;;;;;;;15.80;99.90;;;;;;4941832;28;19926;-64
2023/05/15 08:33:34;;;;;;;;;;;15.80;99.90;;;;;;4955452;28;19917;-65
2023/05/15 08:35:59;;;;;;;;;;;15.70;99.90;;;;;;4940238;28;20394;-66
2023/05/15 08:38:25;;;;;;;;;;;15.80;99.90;;;;;;4951942;28;19910;-65
2023/05/15 08:40:52;;;;;;;;;;;15.70;99.90;;;;;;4941967;28;19934;-65
2023/05/15 08:43:20;;;;;;;;;;;15.70;99.90;;;;;;4952469;28;19918;-65
2023/05/15 08:45:46;;;;;;;;;;;15.70;99.90;;;;;;4951740;28;19938;-65
2023/05/15 08:48:15;;;;;;;;;;;15.70;99.90;;;;;;4950775;28;20359;-72
2023/05/15 08:50:42;;;;;;;;;;;15.80;99.90;;;;;;4946746;28;19918;-69
2023/05/15 08:53:09;;;;;;;;;;;15.80;99.90;;;;;;4951279;28;20013;-69
2023/05/15 08:55:34;;;;;;;;;;;15.80;99.90;;;;;;4946237;28;19922;-70
2023/05/15 08:58:00;;;;;;;;;;;15.80;99.90;;;;;;4952907;28;19911;-70
2023/05/15 09:00:26;;;;;;;;;;;15.70;99.90;;;;;;4948792;28;20079;-70
2023/05/15 09:02:52;;;;;;;;;;;15.70;99.90;;;;;;4946170;28;19914;-70
2023/05/15 09:05:18;;;;;;;;;;;15.70;99.90;;;;;;4945343;28;19918;-69
2023/05/15 09:07:44;;;;;;;;;;;15.70;99.90;;;;;;4952708;28;19921;-65
2023/05/15 09:10:10;;;;;;;;;;;15.70;99.90;;;;;;4949792;28;19914;-67
2023/05/15 09:12:37;;;;;;;;;;;15.70;99.90;;;;;;4951462;28;19975;-65
2023/05/15 09:15:07;;;;;;;;;;;15.70;99.90;;;;;;4947894;28;19965;-65
2023/05/15 09:17:33;;;;;;;;;;;15.70;99.90;;;;;;4940398;28;19911;-65
2023/05/15 09:19:58;;;;;;;;;;;15.70;99.90;;;;;;4953681;28;19947;-66
2023/05/15 09:22:24;;;;;;;;;;;15.70;99.90;;;;;;4960395;28;19969;-66
2023/05/15 09:24:51;;;;;;;;;;;15.80;99.90;;;;;;4943427;28;19922;-65
2023/05/15 09:27:18;;;;;;;;;;;15.80;99.90;;;;;;4937833;28;19917;-70
2023/05/15 09:29:44;;;;;;;;;;;15.90;99.90;;;;;;4953519;28;20024;-70
2023/05/15 09:32:11;;;;;;;;;;;16.00;99.90;;;;;;4948375;28;19926;-71
2023/05/15 09:34:38;;;;;;;;;;;16.00;99.90;;;;;;4932028;28;19919;-73
2023/05/15 09:37:05;;;;;;;;;;;16.00;99.90;;;;;;4943911;28;19918;-69
2023/05/15 09:39:31;;;;;;;;;;;16.00;99.90;;;;;;4947830;28;19993;-66
2023/05/15 09:42:07;;;;;;;;;;;16.00;99.90;;;;;;4946695;28;19914;-69
2023/05/15 09:44:33;;;;;;;;;;;16.00;99.90;;;;;;4940392;28;19966;-69
2023/05/15 09:46:59;;;;;;;;;;;16.00;99.90;;;;;;4954581;28;20335;-64
2023/05/15 09:49:26;;;;;;;;;;;16.00;99.90;;;;;;4955881;28;19914;-64
2023/05/15 09:51:54;;;;;;;;;;;16.00;99.90;;;;;;4954621;28;19914;-65
2023/05/15 09:54:21;;;;;;;;;;;16.00;99.90;;;;;;4952181;28;19911;-64
2023/05/15 09:56:47;;;;;;;;;;;16.00;99.90;;;;;;4953501;28;20365;-65
2023/05/15 09:59:14;;;;;;;;;;;16.10;99.90;;;;;;4951705;28;19923;-64
2023/05/15 10:01:44;;;;;;;;;;;16.20;99.90;;;;;;4942942;28;19948;-64
2023/05/15 10:04:10;;;;;;;;;;;16.30;99.90;;;;;;4953428;28;19957;-65
2023/05/15 10:06:36;;;;;;;;;;;16.30;99.90;;;;;;4956585;28;19949;-64
2023/05/15 10:09:02;;;;;;;;;;;16.40;99.90;;;;;;4953094;28;20283;-64
2023/05/15 10:11:29;;;;;;;;;;;16.50;99.90;;;;;;4954784;28;20382;-64
2023/05/15 10:13:54;;;;;;;;;;;16.60;99.90;;;;;;4956153;28;20646;-64
2023/05/15 10:16:23;;;;;;;;;;;16.70;99.90;;;;;;4945692;28;19918;-64
2023/05/15 10:18:50;;;;;;;;;;;16.70;99.90;;;;;;4957655;28;19916;-64
2023/05/15 10:21:17;;;;;;;;;;;16.80;99.90;;;;;;4951951;28;20343;-64
2023/05/15 10:23:42;;;;;;;;;;;16.80;99.90;;;;;;4951103;28;19976;-69
2023/05/15 10:26:25;;;;;;;;;;;16.90;99.90;;;;;;4952298;28;20302;-66
2023/05/15 10:28:51;;;;;;;;;;;17.00;99.90;;;;;;4957914;28;19919;-65
2023/05/15 10:31:17;;;;;;;;;;;17.10;99.90;;;;;;4958378;28;19936;-65
2023/05/15 10:33:43;;;;;;;;;;;17.20;99.90;;;;;;4957494;28;19918;-65
2023/05/15 10:36:09;;;;;;;;;;;17.30;99.90;;;;;;4956586;28;20399;-65
2023/05/15 10:38:35;;;;;;;;;;;17.20;99.90;;;;;;4954661;28;19910;-65
2023/05/15 10:41:03;;;;;;;;;;;17.20;99.90;;;;;;4953319;28;19917;-65
2023/05/15 10:43:29;;;;;;;;;;;17.10;99.90;;;;;;4958585;28;19992;-65
2023/05/15 10:45:55;;;;;;;;;;;17.20;99.90;;;;;;4953956;28;20004;-65
2023/05/15 10:48:21;;;;;;;;;;;17.20;99.90;;;;;;4958810;28;19970;-65
2023/05/15 10:50:47;;;;;;;;;;;17.30;99.90;;;;;;4955486;28;19960;-65
2023/05/15 10:53:12;;;;;;;;;;;17.30;99.90;;;;;;4952442;28;20356;-65
2023/05/15 10:55:38;;;;;;;;;;;17.30;99.90;;;;;;4959177;28;19938;-66
2023/05/15 10:58:07;;;;;;;;;;;17.30;99.90;;;;;;4957456;28;19922;-65
2023/05/15 11:00:33;;;;;;;;;;;17.20;99.90;;;;;;4958630;28;19953;-65
2023/05/15 11:02:59;;;;;;;;;;;17.10;99.90;;;;;;4956032;28;19954;-65
2023/05/15 11:05:25;;;;;;;;;;;16.90;99.90;;;;;;4958312;28;19930;-65
2023/05/15 11:08:09;;;;;;;;;;;17.00;99.90;;;;;;4959606;28;19976;-65
2023/05/15 11:10:35;;;;;;;;;;;16.90;99.90;;;;;;4938759;28;20422;-65
2023/05/15 11:13:01;;;;;;;;;;;17.00;99.90;;;;;;4949536;28;20159;-66
2023/05/15 11:15:39;;;;;;;;;;;17.10;99.90;;;;;;4955999;28;20424;-65
2023/05/15 11:18:05;;;;;;;;;;;17.20;99.90;;;;;;4949462;28;19921;-66
2023/05/15 11:20:37;;;;;;;;;;;17.20;99.90;;;;;;4953684;28;19918;-66
2023/05/15 11:23:03;;;;;;;;;;;17.30;99.90;;;;;;4943721;28;20707;-69
2023/05/15 11:25:30;;;;;;;;;;;17.40;99.90;;;;;;4954254;28;19922;-69
2023/05/15 11:27:55;;;;;;;;;;;17.40;99.90;;;;;;4954448;28;20374;-70
2023/05/15 11:30:21;;;;;;;;;;;17.50;99.90;;;;;;4954751;28;19914;-70
2023/05/15 11:32:54;;;;;;;;;;;17.40;99.90;;;;;;4945957;28;20383;-70
2023/05/15 11:35:20;;;;;;;;;;;17.30;99.90;;;;;;4955001;28;20272;-70
2023/05/15 11:37:50;;;;;;;;;;;17.30;99.90;;;;;;4949363;28;19918;-70
2023/05/15 11:40:29;;;;;;;;;;;17.10;99.90;;;;;;4949217;28;19914;-70
2023/05/15 11:43:15;;;;;;;;;;;17.10;99.90;;;;;;4947518;28;19914;-70
2023/05/15 11:45:40;;;;;;;;;;;17.20;99.90;;;;;;4946093;28;20406;-70
2023/05/15 11:48:07;;;;;;;;;;;17.40;99.90;;;;;;4949892;28;19911;-71
2023/05/15 11:50:33;;;;;;;;;;;17.40;99.90;;;;;;4946166;28;20358;-70
2023/05/15 11:53:06;;;;;;;;;;;17.50;99.90;;;;;;4951878;28;19914;-70
2023/05/15 11:55:32;;;;;;;;;;;17.50;99.90;;;;;;4949609;28;19970;-70
2023/05/15 11:57:58;;;;;;;;;;;17.40;99.90;;;;;;4945359;28;19974;-71
2023/05/15 12:00:23;;;;;;;;;;;17.40;99.90;;;;;;4943519;28;19921;-70
2023/05/15 12:02:49;;;;;;;;;;;17.50;99.90;;;;;;4945052;28;20514;-70
2023/05/15 12:05:15;;;;;;;;;;;17.60;99.90;;;;;;4941958;28;20371;-71
2023/05/15 12:07:41;;;;;;;;;;;17.70;99.90;;;;;;4950369;28;19992;-71
2023/05/15 12:10:08;;;;;;;;;;;17.80;99.90;;;;;;4933811;28;19918;-71
2023/05/15 12:12:35;;;;;;;;;;;17.90;99.90;;;;;;4940006;28;20270;-71
2023/05/15 12:15:01;;;;;;;;;;;18.00;99.90;;;;;;4941032;28;19968;-71
2023/05/15 12:17:26;;;;;;;;;;;18.00;99.90;;;;;;4946041;28;19918;-65
2023/05/15 12:19:54;;;;;;;;;;;18.10;99.90;;;;;;4943441;28;19963;-64
2023/05/15 12:22:20;;;;;;;;;;;18.10;99.90;;;;;;4941312;28;19925;-64
2023/05/15 12:24:46;;;;;;;;;;;18.20;99.90;;;;;;4943226;28;20500;-65
2023/05/15 12:27:12;;;;;;;;;;;18.30;99.90;;;;;;4938159;28;19925;-65
2023/05/15 12:29:38;;;;;;;;;;;18.20;99.90;;;;;;4944251;28;20583;-65
2023/05/15 12:32:04;;;;;;;;;;;18.10;99.90;;;;;;4948075;28;19917;-64
2023/05/15 12:34:30;;;;;;;;;;;18.00;99.90;;;;;;4951487;28;20282;-65
2023/05/15 12:36:58;;;;;;;;;;;17.90;99.90;;;;;;4949394;28;19913;-65
2023/05/15 12:39:24;;;;;;;;;;;17.90;99.90;;;;;;4946479;28;20017;-65
2023/05/15 12:41:52;;;;;;;;;;;17.90;99.90;;;;;;4950348;28;20401;-65
2023/05/15 12:44:19;;;;;;;;;;;18.00;99.90;;;;;;4947240;28;20003;-65
2023/05/15 12:46:45;;;;;;;;;;;18.00;99.90;;;;;;4951868;28;20021;-66
2023/05/15 12:49:10;;;;;;;;;;;18.00;99.90;;;;;;4953610;28;21300;-65
2023/05/15 12:51:42;;;;;;;;;;;17.90;99.90;;;;;;4950568;28;19918;-66
2023/05/15 12:54:18;;;;;;;;;;;18.00;99.90;;;;;;4947568;28;19918;-66
2023/05/15 12:56:44;;;;;;;;;;;18.10;99.90;;;;;;4950091;28;19918;-70
2023/05/15 12:59:10;;;;;;;;;;;18.00;99.90;;;;;;4945403;28;19924;-71
2023/05/15 13:01:35;;;;;;;;;;;17.90;99.90;;;;;;4947560;28;19913;-70
2023/05/15 13:04:02;;;;;;;;;;;17.80;99.90;;;;;;4951532;28;20650;-70
2023/05/15 13:06:27;;;;;;;;;;;17.70;99.90;;;;;;4946540;28;19918;-71
2023/05/15 13:08:53;;;;;;;;;;;17.70;99.90;;;;;;4943106;28;19920;-71
2023/05/15 13:11:18;;;;;;;;;;;17.90;99.90;;;;;;4944564;28;20363;-71
2023/05/15 13:13:45;;;;;;;;;;;18.10;99.90;;;;;;4938992;28;19919;-71
2023/05/15 13:16:21;;;;;;;;;;;18.20;99.90;;;;;;4947577;28;19910;-65
2023/05/15 13:18:46;;;;;;;;;;;18.20;99.90;;;;;;4939896;28;19962;-65
2023/05/15 13:21:12;;;;;;;;;;;18.30;99.90;;;;;;4945076;28;20013;-65
2023/05/15 13:23:38;;;;;;;;;;;18.40;99.90;;;;;;4949989;28;20177;-65
2023/05/15 13:26:03;;;;;;;;;;;18.40;99.90;;;;;;4930245;28;20462;-66
2023/05/15 13:28:29;;;;;;;;;;;18.50;99.90;;;;;;4944547;28;19925;-66
2023/05/15 13:30:54;;;;;;;;;;;18.50;99.90;;;;;;4950787;28;19918;-66
2023/05/15 13:33:20;;;;;;;;;;;18.70;99.90;;;;;;4942007;28;19972;-66
2023/05/15 13:35:45;;;;;;;;;;;18.70;99.90;;;;;;4952699;28;19914;-72
2023/05/15 13:38:11;;;;;;;;;;;18.80;99.90;;;;;;4945864;28;20565;-72
2023/05/15 13:40:37;;;;;;;;;;;18.90;99.90;;;;;;4946122;28;19911;-71
2023/05/15 13:43:02;;;;;;;;;;;18.90;99.90;;;;;;4949718;28;19918;-70
2023/05/15 13:45:28;;;;;;;;;;;19.00;99.90;;;;;;4946307;28;20138;-71
2023/05/15 13:47:54;;;;;;;;;;;19.00;99.90;;;;;;4947540;28;19921;-66
2023/05/15 13:50:20;;;;;;;;;;;18.80;99.90;;;;;;4947126;28;19914;-69
2023/05/15 13:52:46;;;;;;;;;;;18.90;99.90;;;;;;4947023;28;20189;-67
2023/05/15 13:55:12;;;;;;;;;;;18.90;99.90;;;;;;4938418;28;19976;-69
2023/05/15 13:57:41;;;;;;;;;;;19.00;99.90;;;;;;4947663;28;19918;-69
2023/05/15 14:00:09;;;;;;;;;;;19.20;99.90;;;;;;4944001;28;20382;-69
2023/05/15 14:02:35;;;;;;;;;;;19.40;99.90;;;;;;4944328;28;20462;-68
2023/05/15 14:05:00;;;;;;;;;;;19.40;99.90;;;;;;4941290;28;21378;-69
2023/05/15 14:07:26;;;;;;;;;;;19.50;99.90;;;;;;4948759;28;20407;-68
2023/05/15 14:09:51;;;;;;;;;;;19.50;99.90;;;;;;4946365;28;20005;-70
2023/05/15 14:12:17;;;;;;;;;;;19.50;99.90;;;;;;4954533;28;20378;-78